createdAt,value
2018-06-02T00:00:36.337Z,55.57
2018-06-02T00:03:03.880Z,49.53
2018-06-02T00:05:31.461Z,46.70
2018-06-02T00:07:58.955Z,45.40
2018-06-02T00:10:28.076Z,49.40
2018-06-02T00:12:55.671Z,44.93
2018-06-02T00:15:24.164Z,43.17
2018-06-02T00:17:53.287Z,40.30
2018-06-02T00:20:21.050Z,41.93
2018-06-02T00:22:48.916Z,33.47
2018-06-02T00:25:16.475Z,39.80
2018-06-02T00:27:44.906Z,32.67
2018-06-02T00:30:13.199Z,36.20
2018-06-02T00:32:42.346Z,33.20
2018-06-02T00:35:09.960Z,32.83
2018-06-02T00:37:37.492Z,32.77
2018-06-02T00:40:05.105Z,30.40
2018-06-02T00:42:32.686Z,25.40
2018-06-02T00:45:00.392Z,29.83
2018-06-02T00:47:28.049Z,31.30
2018-06-02T00:49:55.623Z,29.77
2018-06-02T00:52:23.218Z,31.63
2018-06-02T00:54:50.985Z,27.20
2018-06-02T00:57:18.531Z,25.43
2018-06-02T00:59:46.099Z,27.53
2018-06-02T01:02:14.496Z,25.97
2018-06-02T01:04:42.772Z,22.33
2018-06-02T01:07:10.289Z,24.67
2018-06-02T01:09:37.766Z,22.80
2018-06-02T01:12:05.356Z,22.00
2018-06-02T01:14:33.210Z,19.63
2018-06-02T01:17:01.020Z,17.27
2018-06-02T01:19:29.640Z,18.30
2018-06-02T01:21:57.360Z,18.30
2018-06-02T01:24:24.978Z,16.23
2018-06-02T01:26:53.402Z,15.00
2018-06-02T01:29:21.086Z,16.87
2018-06-02T01:31:48.657Z,15.10
2018-06-02T01:34:16.136Z,14.47
2018-06-02T01:36:43.660Z,17.13
2018-06-02T01:39:11.228Z,17.57
2018-06-02T01:41:39.028Z,14.20
2018-06-02T01:44:08.307Z,11.50
2018-06-02T01:46:37.439Z,11.97
2018-06-02T01:49:05.880Z,17.07
2018-06-02T01:51:33.571Z,15.03
2018-06-02T01:54:01.115Z,13.23
2018-06-02T01:56:28.702Z,15.17
2018-06-02T01:58:57.017Z,10.67
2018-06-02T02:01:24.709Z,11.20
2018-06-02T02:03:52.255Z,12.93
2018-06-02T02:06:19.796Z,12.80
2018-06-02T02:08:47.493Z,12.63
2018-06-02T02:11:15.747Z,12.40
2018-06-02T02:13:44.108Z,11.67
2018-06-02T02:16:12.437Z,11.37
2018-06-02T02:18:40.785Z,10.57
2018-06-02T02:21:08.439Z,9.43
2018-06-02T02:23:36.003Z,10.40
2018-06-02T02:26:03.648Z,9.73
2018-06-02T02:28:31.200Z,10.87
2018-06-02T02:30:58.691Z,10.60
2018-06-02T02:33:26.248Z,10.23
2018-06-02T02:35:53.821Z,12.40
2018-06-02T02:38:23.147Z,10.20
2018-06-02T02:40:51.555Z,12.37
2018-06-02T02:43:22.215Z,9.00
2018-06-02T02:45:50.209Z,10.43
2018-06-02T02:48:20.519Z,10.87
2018-06-02T02:56:24.988Z,14.20
2018-06-02T02:59:06.487Z,12.27
2018-06-02T03:18:58.725Z,10.33
2018-06-02T03:21:26.883Z,11.33
2018-06-02T03:23:55.257Z,11.00
2018-06-02T03:26:22.927Z,10.30
2018-06-02T03:28:50.718Z,10.27
2018-06-02T03:31:19.200Z,9.67
2018-06-02T03:33:47.662Z,9.50
2018-06-02T03:36:15.860Z,9.20
2018-06-02T03:38:43.707Z,8.97
2018-06-02T03:41:12.814Z,9.93
2018-06-02T03:46:32.232Z,10.00
2018-06-02T03:49:00.327Z,10.03
2018-06-02T03:57:15.862Z,8.70
2018-06-02T04:17:06.247Z,8.93
2018-06-02T04:22:38.559Z,9.80
2018-06-02T04:28:03.309Z,10.33
2018-06-02T04:30:31.388Z,9.43
2018-06-02T04:32:59.484Z,9.97
2018-06-02T04:35:28.067Z,9.30
2018-06-02T04:37:56.528Z,9.37
2018-06-02T04:40:25.088Z,10.40
2018-06-02T04:42:57.427Z,11.23
2018-06-02T04:56:39.105Z,12.37
2018-06-02T05:02:02.580Z,8.73
2018-06-02T05:04:31.251Z,9.80
2018-06-02T05:12:48.221Z,10.27
2018-06-02T05:15:20.887Z,8.80
2018-06-02T05:29:31.317Z,8.07
2018-06-02T06:03:52.299Z,8.43
2018-06-02T06:06:25.352Z,8.57
2018-06-02T06:23:22.863Z,7.07
2018-06-02T06:28:52.873Z,7.10
2018-06-02T06:34:15.099Z,8.37
2018-06-02T06:51:17.807Z,6.97
2018-06-02T06:53:55.847Z,6.57
2018-06-02T06:56:37.486Z,8.03
2018-06-02T06:59:05.549Z,7.70
2018-06-02T07:04:31.568Z,6.83
2018-06-02T07:12:47.187Z,7.60
2018-06-02T07:18:09.551Z,7.07
2018-06-02T07:23:43.652Z,7.30
2018-06-02T07:34:54.164Z,6.67
2018-06-02T07:46:06.277Z,7.10
2018-06-02T07:54:24.263Z,7.03
2018-06-02T08:17:08.698Z,6.83
2018-06-02T08:25:24.501Z,6.30
2018-06-02T08:50:55.004Z,7.80
2018-06-02T08:53:32.346Z,7.17
2018-06-02T08:58:56.918Z,7.00
2018-06-02T09:04:18.538Z,7.43
2018-06-02T09:18:07.812Z,6.97
2018-06-02T09:26:32.172Z,7.13
2018-06-02T09:31:48.555Z,6.20
2018-06-02T09:57:02.923Z,8.03
2018-06-02T09:59:31.440Z,7.33
2018-06-02T10:02:00.071Z,7.13
2018-06-02T10:07:07.652Z,7.13
2018-06-02T10:15:27.894Z,7.63
2018-06-02T10:18:01.315Z,6.70
2018-06-02T10:23:26.437Z,6.33
2018-06-02T10:25:54.250Z,6.40
2018-06-02T10:28:22.719Z,7.20
2018-06-02T10:36:43.581Z,6.83
2018-06-02T10:42:06.115Z,6.80
2018-06-02T10:47:29.743Z,5.60
2018-06-02T10:52:51.813Z,6.57
2018-06-02T10:55:19.704Z,6.47
2018-06-02T10:57:47.350Z,6.40
2018-06-02T11:00:16.652Z,6.97
2018-06-02T11:02:56.050Z,6.30
2018-06-02T11:08:17.691Z,6.40
2018-06-02T11:16:32.143Z,5.90
2018-06-02T11:19:00.405Z,6.40
2018-06-02T11:21:35.628Z,6.23
2018-06-02T11:24:09.197Z,6.07
2018-06-02T11:29:18.567Z,6.13
2018-06-02T11:31:47.008Z,6.07
2018-06-02T11:34:14.732Z,8.50
2018-06-02T11:36:43.005Z,6.00
2018-06-02T11:39:10.687Z,5.50
2018-06-02T11:44:36.688Z,5.90
2018-06-02T11:49:53.931Z,6.97
2018-06-02T11:52:22.759Z,6.00
2018-06-02T11:54:50.398Z,5.50
2018-06-02T11:57:18.019Z,5.07
2018-06-02T11:59:46.107Z,5.90
2018-06-02T12:13:40.512Z,7.00
2018-06-02T12:16:08.906Z,6.83
2018-06-02T12:18:36.553Z,9.83
2018-06-02T12:21:05.109Z,11.27
2018-06-02T12:29:07.669Z,85.63
2018-06-02T12:43:23.595Z,135.87
2018-06-02T12:45:51.152Z,128.83
2018-06-02T12:48:18.723Z,122.70
2018-06-02T12:50:46.313Z,120.27
2018-06-02T12:53:14.029Z,115.93
2018-06-02T12:55:42.226Z,114.87
2018-06-02T12:58:09.793Z,109.53
2018-06-02T13:00:38.215Z,108.03
2018-06-02T13:03:05.829Z,96.27
2018-06-02T13:05:34.886Z,97.63
2018-06-02T13:08:03.152Z,94.70
2018-06-02T13:10:30.605Z,91.70
2018-06-02T13:12:58.785Z,95.27
2018-06-02T13:15:26.220Z,84.67
2018-06-02T13:17:53.856Z,83.53
2018-06-02T13:20:21.601Z,83.60
2018-06-02T13:22:49.174Z,86.10
2018-06-02T13:25:17.497Z,77.10
2018-06-02T13:27:45.125Z,74.80
2018-06-02T13:30:12.714Z,78.33
2018-06-02T13:32:40.209Z,72.70
2018-06-02T13:35:07.868Z,74.93
2018-06-02T13:37:35.411Z,66.43
2018-06-02T13:40:02.918Z,66.73
2018-06-02T13:42:30.348Z,70.40
2018-06-02T13:44:58.009Z,74.13
2018-06-02T13:47:25.525Z,72.80
2018-06-02T13:49:53.218Z,63.40
2018-06-02T13:52:20.800Z,64.67
2018-06-02T13:54:48.344Z,61.60
2018-06-02T13:57:15.876Z,62.90
2018-06-02T13:59:43.454Z,55.67
2018-06-02T14:02:11.053Z,63.93
2018-06-02T14:04:38.516Z,57.00
2018-06-02T14:07:05.955Z,52.87
2018-06-02T14:09:33.466Z,56.77
2018-06-02T14:12:01.888Z,52.37
2018-06-02T14:14:29.424Z,57.40
2018-06-02T14:16:56.986Z,49.00
2018-06-02T14:19:24.488Z,49.17
2018-06-02T14:21:52.111Z,45.47
2018-06-02T14:24:19.654Z,46.33
2018-06-02T14:26:47.227Z,46.03
2018-06-02T14:29:15.054Z,44.03
2018-06-02T14:31:42.578Z,45.33
2018-06-02T14:34:10.069Z,41.77
2018-06-02T14:36:37.615Z,44.43
2018-06-02T14:39:05.119Z,38.43
2018-06-02T14:41:33.487Z,51.93
2018-06-02T14:44:01.117Z,54.60
2018-06-02T14:46:28.560Z,44.53
2018-06-02T14:48:56.023Z,39.37
2018-06-02T14:51:23.554Z,42.10
2018-06-02T14:53:52.231Z,40.40
2018-06-02T14:56:19.834Z,38.67
2018-06-02T14:58:47.289Z,34.60
2018-06-02T15:01:16.091Z,40.97
2018-06-02T15:03:44.444Z,37.70
2018-06-02T15:06:11.932Z,37.30
2018-06-02T15:08:40.281Z,64.00
2018-06-02T15:11:08.648Z,49.93
2018-06-02T15:13:37.730Z,51.47
2018-06-02T15:16:05.381Z,51.50
2018-06-02T15:18:33.848Z,50.73
2018-06-02T15:23:48.008Z,41.07
2018-06-02T15:26:15.788Z,43.77
2018-06-02T15:28:43.439Z,37.63
2018-06-02T15:31:10.955Z,34.37
2018-06-02T15:33:38.466Z,32.57
2018-06-02T15:36:06.832Z,37.20
2018-06-02T15:38:34.382Z,36.20
2018-06-02T15:41:01.908Z,30.70
2018-06-02T15:43:29.869Z,31.97
2018-06-02T15:45:58.388Z,30.10
2018-06-02T15:48:26.898Z,32.00
2018-06-02T15:50:54.479Z,27.93
2018-06-02T15:53:23.642Z,27.57
2018-06-02T15:55:51.283Z,23.33
2018-06-02T15:58:18.773Z,23.37
2018-06-02T16:00:46.282Z,26.40
2018-06-02T16:03:13.810Z,24.40
2018-06-02T16:05:41.509Z,29.67
2018-06-02T16:08:09.208Z,26.57
2018-06-02T16:10:36.822Z,27.40
2018-06-02T16:13:04.542Z,25.93
2018-06-02T16:15:32.086Z,25.07
2018-06-02T16:17:59.636Z,26.43
2018-06-02T16:20:27.922Z,24.27
2018-06-02T16:22:55.562Z,28.47
2018-06-02T16:25:23.051Z,23.97
2018-06-02T16:27:50.683Z,23.90
2018-06-02T16:30:19.417Z,28.10
2018-06-02T16:32:47.051Z,18.90
2018-06-02T16:35:14.637Z,20.03
2018-06-02T16:37:43.054Z,22.83
2018-06-02T16:40:10.744Z,18.70
2018-06-02T16:42:38.522Z,20.50
2018-06-02T16:45:06.148Z,19.17
2018-06-02T16:47:34.385Z,22.00
2018-06-02T16:50:01.963Z,17.77
2018-06-02T16:52:29.537Z,18.77
2018-06-02T16:54:57.092Z,21.03
2018-06-02T16:57:24.642Z,18.67
2018-06-02T16:59:52.194Z,18.57
2018-06-02T17:02:19.670Z,23.67
2018-06-02T17:04:47.142Z,18.83
2018-06-02T17:07:16.011Z,17.07
2018-06-02T17:09:43.594Z,17.60
2018-06-02T17:12:11.168Z,21.87
2018-06-02T17:14:39.695Z,18.07
2018-06-02T17:17:07.306Z,20.53
2018-06-02T17:19:35.527Z,17.77
2018-06-02T17:22:03.043Z,18.47
2018-06-02T17:24:30.738Z,16.67
2018-06-02T17:26:58.550Z,16.90
2018-06-02T17:29:28.036Z,15.70
2018-06-02T17:31:56.342Z,18.17
2018-06-02T17:34:24.628Z,16.80
2018-06-02T17:36:53.114Z,15.10
2018-06-02T17:39:20.843Z,17.40
2018-06-02T17:41:48.471Z,15.30
2018-06-02T17:44:16.034Z,20.43
2018-06-02T17:46:43.738Z,16.77
2018-06-02T17:49:11.460Z,15.97
2018-06-02T17:51:39.045Z,18.53
2018-06-02T17:54:06.936Z,16.73
2018-06-02T17:56:34.641Z,15.90
2018-06-02T17:59:02.238Z,14.40
2018-06-02T18:01:30.012Z,14.60
2018-06-02T18:03:57.659Z,15.80
2018-06-02T18:06:25.465Z,15.03
2018-06-02T18:08:54.592Z,16.73
2018-06-02T18:11:22.138Z,14.20
2018-06-02T18:13:49.717Z,13.87
2018-06-02T18:16:17.204Z,14.57
2018-06-02T18:18:46.359Z,14.40
2018-06-02T18:21:13.794Z,16.13
2018-06-02T18:23:41.295Z,16.63
2018-06-02T18:26:08.822Z,14.40
2018-06-02T18:28:36.336Z,13.17
2018-06-02T18:31:03.967Z,13.23
2018-06-02T18:33:31.476Z,15.40
2018-06-02T18:35:59.240Z,14.90
2018-06-02T18:38:26.946Z,15.93
2018-06-02T18:40:56.024Z,13.97
2018-06-02T18:43:23.550Z,15.67
2018-06-02T18:45:51.859Z,14.10
2018-06-02T18:48:19.428Z,15.20
2018-06-02T18:50:47.044Z,18.40
2018-06-02T18:53:14.626Z,14.20
2018-06-02T18:55:42.202Z,14.47
2018-06-02T18:58:09.790Z,14.37
2018-06-02T19:00:37.340Z,14.77
2018-06-02T19:03:04.826Z,14.27
2018-06-02T19:05:32.384Z,13.27
2018-06-02T19:08:00.047Z,15.23
2018-06-02T19:10:28.406Z,15.30
2018-06-02T19:12:55.819Z,14.50
2018-06-02T19:15:23.445Z,13.50
2018-06-02T19:17:51.188Z,14.57
2018-06-02T19:20:18.772Z,13.63
2018-06-02T19:22:47.065Z,13.70
2018-06-02T19:25:14.607Z,14.77
2018-06-02T19:27:42.613Z,14.57
2018-06-02T19:30:10.634Z,14.60
2018-06-02T19:32:38.145Z,14.23
2018-06-02T19:35:06.546Z,14.47
2018-06-02T19:37:34.111Z,14.37
2018-06-02T19:40:02.169Z,14.70
2018-06-02T19:42:29.761Z,15.40
2018-06-02T19:44:58.118Z,14.90
2018-06-02T19:47:25.736Z,15.27
2018-06-02T19:49:54.766Z,15.00
2018-06-02T19:52:22.343Z,15.80
2018-06-02T19:54:49.904Z,14.60
2018-06-02T19:57:18.059Z,13.70
2018-06-02T19:59:45.535Z,13.67
2018-06-02T20:02:13.195Z,13.73
2018-06-02T20:04:40.796Z,13.20
2018-06-02T20:07:08.540Z,15.90
2018-06-02T20:09:36.211Z,14.63
2018-06-02T20:12:03.845Z,14.27
2018-06-02T20:14:31.415Z,14.30
2018-06-02T20:16:59.066Z,13.87
2018-06-02T20:19:26.767Z,16.37
2018-06-02T20:21:54.377Z,14.63
2018-06-02T20:24:21.959Z,15.20
2018-06-02T20:26:49.778Z,14.03
2018-06-02T20:29:18.171Z,14.87
2018-06-02T20:31:45.868Z,14.50
2018-06-02T20:34:15.090Z,14.33
2018-06-02T20:36:42.797Z,14.53
2018-06-02T20:39:11.343Z,16.00
2018-06-02T20:41:39.643Z,13.53
2018-06-02T20:44:07.194Z,13.80
2018-06-02T20:46:34.809Z,15.40
2018-06-02T20:49:02.574Z,15.13
2018-06-02T20:51:30.154Z,14.20
2018-06-02T20:53:57.865Z,15.93
2018-06-02T20:56:26.319Z,14.67
2018-06-02T20:58:53.989Z,16.13
2018-06-02T21:01:22.021Z,17.30
2018-06-02T21:03:55.893Z,16.00
2018-06-02T21:06:23.880Z,15.53
2018-06-02T21:08:55.826Z,14.53
2018-06-02T21:11:29.679Z,15.53
2018-06-02T21:36:42.435Z,16.73
2018-06-02T21:39:16.814Z,16.63
2018-06-02T21:41:44.949Z,15.43
2018-06-02T21:58:32.458Z,14.00
2018-06-02T22:06:48.006Z,15.17
2018-06-02T22:12:11.018Z,15.50
2018-06-02T22:20:32.532Z,14.80
2018-06-02T22:37:29.038Z,14.50
2018-06-02T22:39:56.739Z,13.77
2018-06-02T22:42:24.362Z,14.20
2018-06-02T22:44:52.027Z,14.37
2018-06-02T22:47:19.637Z,13.60
2018-06-02T23:09:50.686Z,14.47
2018-06-02T23:18:06.793Z,15.97
2018-06-02T23:26:22.639Z,17.47
2018-06-02T23:28:50.816Z,17.97
2018-06-02T23:31:18.718Z,25.00
2018-06-02T23:33:46.443Z,23.77
2018-06-02T23:36:14.107Z,22.07
2018-06-02T23:58:40.403Z,36.50
